createdAt,value
2023-05-23T00:03:59.390Z,11.00
2023-05-23T00:09:01.249Z,11.00
2023-05-23T00:14:03.028Z,10.90
2023-05-23T00:19:05.516Z,10.90
2023-05-23T00:24:07.600Z,10.80
2023-05-23T00:29:15.684Z,10.80
2023-05-23T00:34:20.141Z,10.70
2023-05-23T00:39:21.972Z,10.60
2023-05-23T00:44:24.108Z,10.50
2023-05-23T00:49:28.344Z,10.60
2023-05-23T00:54:31.546Z,10.50
2023-05-23T00:59:36.169Z,10.40
2023-05-23T01:04:38.880Z,10.40
2023-05-23T01:09:40.753Z,10.40
2023-05-23T01:14:47.989Z,10.30
2023-05-23T01:20:00.543Z,10.20
2023-05-23T01:25:21.996Z,10.00
2023-05-23T01:30:25.918Z,9.90
2023-05-23T01:35:28.486Z,10.00
2023-05-23T01:40:30.525Z,10.00
2023-05-23T01:45:32.564Z,10.00
2023-05-23T01:50:34.850Z,9.90
2023-05-23T01:55:36.719Z,9.90
2023-05-23T02:00:38.598Z,9.90
2023-05-23T02:05:40.618Z,9.80
2023-05-23T02:10:42.616Z,9.80
2023-05-23T02:15:44.438Z,9.90
2023-05-23T02:20:46.393Z,9.90
2023-05-23T02:25:48.352Z,9.90
2023-05-23T02:30:50.259Z,10.00
2023-05-23T02:35:52.209Z,10.00
2023-05-23T02:40:54.085Z,10.10
2023-05-23T02:45:55.903Z,10.00
2023-05-23T02:50:57.676Z,10.10
2023-05-23T02:55:59.711Z,10.30
2023-05-23T03:01:03.044Z,10.60
2023-05-23T03:06:07.661Z,10.80
2023-05-23T03:11:09.796Z,10.90
2023-05-23T03:16:13.142Z,11.10
2023-05-23T03:21:15.462Z,11.20
2023-05-23T03:26:17.355Z,11.30
2023-05-23T03:31:19.331Z,11.50
2023-05-23T03:36:22.020Z,11.70
2023-05-23T03:41:23.828Z,12.00
2023-05-23T03:46:25.932Z,12.60
2023-05-23T03:51:28.362Z,13.30
2023-05-23T03:56:30.348Z,13.90
2023-05-23T04:01:32.168Z,14.00
2023-05-23T04:06:34.013Z,14.40
2023-05-23T04:11:35.872Z,14.80
2023-05-23T04:16:38.284Z,15.90
2023-05-23T04:21:40.761Z,17.20
2023-05-23T04:26:43.058Z,17.50
2023-05-23T04:31:46.017Z,17.10
2023-05-23T04:36:49.547Z,16.50
2023-05-23T04:41:51.442Z,16.30
2023-05-23T04:46:53.416Z,16.50
2023-05-23T04:51:55.314Z,16.10
2023-05-23T04:56:57.327Z,15.90
2023-05-23T05:01:59.300Z,16.00
2023-05-23T05:07:03.576Z,16.40
2023-05-23T05:12:05.699Z,20.10
2023-05-23T05:17:08.065Z,19.50
2023-05-23T05:22:10.119Z,19.50
2023-05-23T05:27:12.056Z,19.40
2023-05-23T05:32:13.823Z,19.00
2023-05-23T05:37:15.723Z,18.60
2023-05-23T05:42:17.501Z,20.10
2023-05-23T05:47:19.269Z,22.40
2023-05-23T05:52:21.032Z,23.30
2023-05-23T05:57:22.875Z,25.70
2023-05-23T06:02:24.909Z,30.40
2023-05-23T06:07:26.879Z,33.70
2023-05-23T06:12:28.667Z,31.00
2023-05-23T06:17:30.502Z,27.40
2023-05-23T06:22:32.533Z,26.40
2023-05-23T06:27:34.487Z,24.30
2023-05-23T06:32:36.847Z,23.00
2023-05-23T06:37:40.214Z,24.40
2023-05-23T06:42:42.371Z,29.00
2023-05-23T06:47:45.679Z,33.00
2023-05-23T06:52:47.575Z,35.50
2023-05-23T06:57:52.131Z,37.60
2023-05-23T07:02:54.021Z,38.10
2023-05-23T07:07:55.858Z,37.40
2023-05-23T07:12:57.612Z,38.30
2023-05-23T07:17:59.558Z,36.70
2023-05-23T07:23:01.518Z,39.40
2023-05-23T07:28:03.461Z,38.20
2023-05-23T07:33:05.298Z,35.60
2023-05-23T07:38:07.425Z,35.90
2023-05-23T07:43:09.217Z,37.20
2023-05-23T07:48:12.662Z,37.20
2023-05-23T07:53:14.428Z,39.10
2023-05-23T07:58:16.284Z,37.10
2023-05-23T08:03:19.310Z,37.80
2023-05-23T08:08:21.163Z,36.50
2023-05-23T08:13:23.058Z,36.40
2023-05-23T08:18:25.164Z,38.30
2023-05-23T08:23:27.180Z,35.90
2023-05-23T08:28:29.016Z,33.40
2023-05-23T08:33:30.779Z,32.60
2023-05-23T08:38:32.556Z,35.60
2023-05-23T08:43:34.351Z,34.10
2023-05-23T08:48:38.580Z,34.80
2023-05-23T08:53:44.579Z,29.90
2023-05-23T08:58:47.708Z,27.70
2023-05-23T09:03:51.039Z,26.70
2023-05-23T09:08:52.850Z,26.80
2023-05-23T09:13:56.132Z,32.00
2023-05-23T09:18:58.183Z,30.80
2023-05-23T09:24:00.781Z,27.30
2023-05-23T09:29:05.779Z,30.30
2023-05-23T09:34:07.893Z,31.70
2023-05-23T09:39:12.376Z,31.90
2023-05-23T09:44:14.136Z,31.60
2023-05-23T09:49:18.851Z,31.00
2023-05-23T09:54:20.627Z,33.60
2023-05-23T09:59:24.347Z,34.60
2023-05-23T10:04:28.403Z,33.30
2023-05-23T10:09:36.308Z,33.20
2023-05-23T10:14:44.090Z,29.60
2023-05-23T10:20:08.374Z,28.40
2023-05-23T10:25:10.895Z,26.90
2023-05-23T10:30:13.522Z,26.60
2023-05-23T10:35:36.415Z,25.50
2023-05-23T10:40:52.995Z,25.10
2023-05-23T10:45:55.167Z,25.30
2023-05-23T10:51:04.560Z,24.60
2023-05-23T10:56:07.865Z,24.00
2023-05-23T11:01:13.507Z,24.30
2023-05-23T11:06:39.031Z,24.90
2023-05-23T11:11:53.109Z,24.60
2023-05-23T11:16:55.074Z,24.20
2023-05-23T11:22:02.516Z,24.30
2023-05-23T11:27:04.509Z,24.50
2023-05-23T11:32:16.956Z,24.20
2023-05-23T11:37:20.730Z,24.00
2023-05-23T11:42:23.490Z,24.20
2023-05-23T11:47:25.444Z,24.90
2023-05-23T11:52:33.037Z,24.50
2023-05-23T11:57:38.732Z,24.20
2023-05-23T12:02:42.072Z,24.20
2023-05-23T12:07:48.406Z,25.20
2023-05-23T12:12:52.176Z,25.10
2023-05-23T12:17:55.342Z,24.90
2023-05-23T12:22:57.776Z,24.50
2023-05-23T12:28:00.773Z,24.40
2023-05-23T12:33:08.949Z,24.50
2023-05-23T12:38:14.810Z,24.70
2023-05-23T12:43:16.745Z,24.70
2023-05-23T12:48:18.501Z,24.90
2023-05-23T12:53:20.383Z,24.70
2023-05-23T12:58:22.412Z,24.40
2023-05-23T13:03:25.090Z,23.70
2023-05-23T13:08:30.294Z,23.50
2023-05-23T13:13:34.916Z,23.50
2023-05-23T13:18:36.952Z,23.90
2023-05-23T13:23:39.077Z,23.80
2023-05-23T13:28:41.207Z,24.00
2023-05-23T13:33:43.053Z,24.30
2023-05-23T13:38:44.839Z,24.10
2023-05-23T13:43:46.634Z,24.20
2023-05-23T13:48:48.522Z,24.10
2023-05-23T13:53:50.258Z,23.50
2023-05-23T13:58:52.229Z,23.30
2023-05-23T14:03:54.455Z,23.40
2023-05-23T14:08:56.369Z,23.60
2023-05-23T14:13:58.139Z,23.60
2023-05-23T14:19:00.126Z,23.60
2023-05-23T14:24:02.566Z,24.00
2023-05-23T14:29:04.525Z,24.20
2023-05-23T14:34:06.342Z,23.70
2023-05-23T14:39:10.824Z,23.60
2023-05-23T14:44:13.200Z,23.60
2023-05-23T14:49:17.322Z,23.80
2023-05-23T14:54:19.868Z,23.80
2023-05-23T14:59:21.911Z,24.00
2023-05-23T15:04:24.401Z,24.10
2023-05-23T15:09:27.279Z,24.00
2023-05-23T15:14:32.071Z,23.80
2023-05-23T15:19:37.393Z,23.40
2023-05-23T15:24:40.876Z,23.40
2023-05-23T15:29:42.933Z,23.40
2023-05-23T15:34:44.947Z,23.50
2023-05-23T15:39:48.773Z,23.70
2023-05-23T15:44:51.154Z,23.70
2023-05-23T15:49:52.959Z,24.00
2023-05-23T15:54:54.917Z,24.30
2023-05-23T15:59:56.664Z,24.00
2023-05-23T16:04:58.416Z,23.60
2023-05-23T16:10:00.473Z,23.30
2023-05-23T16:15:02.396Z,23.20
2023-05-23T16:20:04.548Z,23.10
2023-05-23T16:25:07.960Z,23.00
2023-05-23T16:30:10.343Z,22.80
2023-05-23T16:35:12.213Z,22.60
2023-05-23T16:40:14.039Z,22.40
2023-05-23T16:45:16.148Z,22.20
2023-05-23T16:50:18.027Z,22.00
2023-05-23T16:55:19.774Z,21.80
2023-05-23T17:00:21.698Z,21.70
2023-05-23T17:05:23.650Z,21.50
2023-05-23T17:10:25.544Z,21.30
2023-05-23T17:15:27.336Z,21.20
2023-05-23T17:20:29.249Z,21.10
2023-05-23T17:25:31.321Z,21.10
2023-05-23T17:30:33.447Z,20.90
2023-05-23T17:35:35.554Z,20.80
2023-05-23T17:40:37.393Z,20.70
2023-05-23T17:45:39.224Z,20.60
2023-05-23T17:50:41.942Z,20.50
2023-05-23T17:55:44.008Z,20.30
2023-05-23T18:00:46.878Z,20.30
2023-05-23T18:05:48.771Z,20.10
2023-05-23T18:10:51.312Z,19.90
2023-05-23T18:15:53.324Z,19.70
2023-05-23T18:20:55.101Z,19.40
2023-05-23T18:25:57.772Z,19.00
2023-05-23T18:30:59.731Z,18.70
2023-05-23T18:36:01.748Z,18.50
2023-05-23T18:41:03.859Z,18.20
2023-05-23T18:46:06.652Z,18.00
2023-05-23T18:51:09.451Z,17.80
2023-05-23T18:56:11.245Z,17.50
2023-05-23T19:01:13.041Z,17.40
2023-05-23T19:06:15.376Z,17.20
2023-05-23T19:11:17.292Z,17.10
2023-05-23T19:16:20.595Z,16.90
2023-05-23T19:21:22.716Z,16.80
2023-05-23T19:26:24.751Z,16.70
2023-05-23T19:31:27.401Z,16.50
2023-05-23T19:36:29.182Z,16.40
2023-05-23T19:41:32.831Z,16.20
2023-05-23T19:46:34.668Z,16.10
2023-05-23T19:51:36.914Z,15.90
2023-05-23T19:56:40.925Z,15.90
2023-05-23T20:01:42.730Z,15.90
2023-05-23T20:06:44.582Z,15.80
2023-05-23T20:11:46.707Z,15.70
2023-05-23T20:16:48.452Z,15.70
2023-05-23T20:21:50.582Z,15.50
2023-05-23T20:26:52.418Z,15.50
2023-05-23T20:31:54.508Z,15.40
2023-05-23T20:36:57.726Z,15.40
2023-05-23T20:41:59.821Z,15.20
2023-05-23T20:47:01.616Z,15.20
2023-05-23T20:52:05.472Z,15.20
2023-05-23T20:57:07.245Z,15.00
2023-05-23T21:02:09.311Z,14.90
2023-05-23T21:07:11.593Z,14.90
2023-05-23T21:12:13.438Z,14.80
2023-05-23T21:17:16.145Z,14.90
2023-05-23T21:22:17.947Z,14.70
2023-05-23T21:27:19.832Z,14.60
2023-05-23T21:32:22.215Z,14.60
2023-05-23T21:37:24.165Z,14.50
2023-05-23T21:42:27.186Z,14.50
2023-05-23T21:47:29.166Z,14.40
2023-05-23T21:52:31.288Z,14.20
2023-05-23T21:57:33.318Z,14.20
2023-05-23T22:02:35.252Z,14.20
2023-05-23T22:07:37.237Z,14.20
2023-05-23T22:12:39.240Z,14.40
2023-05-23T22:17:43.756Z,14.20
2023-05-23T22:22:45.871Z,14.10
2023-05-23T22:27:47.748Z,14.10
2023-05-23T22:32:49.815Z,14.00
2023-05-23T22:37:51.582Z,13.90
2023-05-23T22:42:53.474Z,13.80
2023-05-23T22:47:56.115Z,13.80
2023-05-23T22:52:58.569Z,13.80
2023-05-23T22:58:00.528Z,13.70
2023-05-23T23:03:02.748Z,13.90
2023-05-23T23:08:04.749Z,13.80
2023-05-23T23:13:06.495Z,13.80
2023-05-23T23:18:08.940Z,13.80
2023-05-23T23:23:11.030Z,13.90
2023-05-23T23:28:12.802Z,13.90
2023-05-23T23:33:15.116Z,14.20
2023-05-23T23:38:17.352Z,14.20
2023-05-23T23:43:19.149Z,14.00
2023-05-23T23:48:20.995Z,13.90
2023-05-23T23:53:23.248Z,13.70
2023-05-23T23:58:25.134Z,13.70
